sensor_id;sensor_type;location;lat;lon;timestamp;P1;durP1;ratioP1;P2;durP2;ratioP2
20397;SDS011;10358;49.590;11.030;2023-04-06T00:00:38;6.63;;;3.87;;
20397;SDS011;10358;49.590;11.030;2023-04-06T00:03:04;7.73;;;3.70;;
20397;SDS011;10358;49.590;11.030;2023-04-06T00:05:30;7.30;;;4.13;;
20397;SDS011;10358;49.590;11.030;2023-04-06T00:07:56;7.67;;;3.87;;
20397;SDS011;10358;49.590;11.030;2023-04-06T00:10:23;8.03;;;3.77;;
20397;SDS011;10358;49.590;11.030;2023-04-06T00:12:48;10.67;;;3.70;;
20397;SDS011;10358;49.590;11.030;2023-04-06T00:15:14;10.83;;;4.10;;
20397;SDS011;10358;49.590;11.030;2023-04-06T00:17:40;7.33;;;4.00;;
20397;SDS011;10358;49.590;11.030;2023-04-06T00:20:05;9.10;;;4.20;;
20397;SDS011;10358;49.590;11.030;2023-04-06T00:22:31;7.47;;;4.30;;
20397;SDS011;10358;49.590;11.030;2023-04-06T00:24:57;10.73;;;3.90;;
20397;SDS011;10358;49.590;11.030;2023-04-06T00:27:23;6.17;;;3.90;;
20397;SDS011;10358;49.590;11.030;2023-04-06T00:29:48;7.30;;;3.90;;
20397;SDS011;10358;49.590;11.030;2023-04-06T00:32:14;6.67;;;4.20;;
20397;SDS011;10358;49.590;11.030;2023-04-06T00:34:39;7.17;;;3.80;;
20397;SDS011;10358;49.590;11.030;2023-04-06T00:37:05;7.27;;;3.93;;
20397;SDS011;10358;49.590;11.030;2023-04-06T00:39:30;5.43;;;3.43;;
20397;SDS011;10358;49.590;11.030;2023-04-06T00:41:56;6.50;;;3.60;;
20397;SDS011;10358;49.590;11.030;2023-04-06T00:44:22;7.70;;;4.07;;
20397;SDS011;10358;49.590;11.030;2023-04-06T00:46:47;5.97;;;3.80;;
20397;SDS011;10358;49.590;11.030;2023-04-06T00:49:13;6.50;;;3.67;;
20397;SDS011;10358;49.590;11.030;2023-04-06T00:51:39;6.97;;;3.93;;
20397;SDS011;10358;49.590;11.030;2023-04-06T00:54:04;7.53;;;4.10;;
20397;SDS011;10358;49.590;11.030;2023-04-06T00:56:30;7.00;;;4.07;;
20397;SDS011;10358;49.590;11.030;2023-04-06T00:58:56;6.67;;;3.77;;
20397;SDS011;10358;49.590;11.030;2023-04-06T01:01:22;7.50;;;3.90;;
20397;SDS011;10358;49.590;11.030;2023-04-06T01:03:48;6.50;;;3.63;;
20397;SDS011;10358;49.590;11.030;2023-04-06T01:06:15;7.47;;;4.07;;
20397;SDS011;10358;49.590;11.030;2023-04-06T01:08:41;7.83;;;3.93;;
20397;SDS011;10358;49.590;11.030;2023-04-06T01:11:06;7.30;;;3.70;;
20397;SDS011;10358;49.590;11.030;2023-04-06T01:13:32;7.10;;;3.60;;
20397;SDS011;10358;49.590;11.030;2023-04-06T01:15:57;6.80;;;3.87;;
20397;SDS011;10358;49.590;11.030;2023-04-06T01:18:26;7.20;;;4.00;;
20397;SDS011;10358;49.590;11.030;2023-04-06T01:20:52;8.97;;;4.47;;
20397;SDS011;10358;49.590;11.030;2023-04-06T01:23:18;10.70;;;4.50;;
20397;SDS011;10358;49.590;11.030;2023-04-06T01:25:44;8.80;;;3.90;;
20397;SDS011;10358;49.590;11.030;2023-04-06T01:28:09;6.53;;;3.67;;
20397;SDS011;10358;49.590;11.030;2023-04-06T01:30:35;8.57;;;4.40;;
20397;SDS011;10358;49.590;11.030;2023-04-06T01:33:01;7.73;;;4.17;;
20397;SDS011;10358;49.590;11.030;2023-04-06T01:35:26;7.90;;;3.70;;
20397;SDS011;10358;49.590;11.030;2023-04-06T01:37:53;10.33;;;4.03;;
20397;SDS011;10358;49.590;11.030;2023-04-06T01:40:18;5.73;;;4.10;;
20397;SDS011;10358;49.590;11.030;2023-04-06T01:42:44;7.47;;;3.90;;
20397;SDS011;10358;49.590;11.030;2023-04-06T01:45:10;8.00;;;4.03;;
20397;SDS011;10358;49.590;11.030;2023-04-06T01:47:35;8.03;;;4.30;;
20397;SDS011;10358;49.590;11.030;2023-04-06T01:50:01;8.70;;;4.00;;
20397;SDS011;10358;49.590;11.030;2023-04-06T01:52:30;8.77;;;3.80;;
20397;SDS011;10358;49.590;11.030;2023-04-06T01:54:55;12.37;;;4.10;;
20397;SDS011;10358;49.590;11.030;2023-04-06T01:57:21;7.50;;;3.97;;
20397;SDS011;10358;49.590;11.030;2023-04-06T01:59:46;7.90;;;4.10;;
20397;SDS011;10358;49.590;11.030;2023-04-06T02:02:12;9.27;;;3.90;;
20397;SDS011;10358;49.590;11.030;2023-04-06T02:04:38;6.90;;;3.93;;
20397;SDS011;10358;49.590;11.030;2023-04-06T02:07:03;7.77;;;3.57;;
20397;SDS011;10358;49.590;11.030;2023-04-06T02:09:29;7.80;;;3.70;;
20397;SDS011;10358;49.590;11.030;2023-04-06T02:11:54;8.03;;;4.00;;
20397;SDS011;10358;49.590;11.030;2023-04-06T02:14:20;6.90;;;4.17;;
20397;SDS011;10358;49.590;11.030;2023-04-06T02:16:46;7.83;;;4.20;;
20397;SDS011;10358;49.590;11.030;2023-04-06T02:19:11;7.13;;;3.87;;
20397;SDS011;10358;49.590;11.030;2023-04-06T02:21:37;7.87;;;3.40;;
20397;SDS011;10358;49.590;11.030;2023-04-06T02:24:03;8.10;;;3.97;;
20397;SDS011;10358;49.590;11.030;2023-04-06T02:26:28;6.53;;;3.97;;
20397;SDS011;10358;49.590;11.030;2023-04-06T02:28:54;10.40;;;4.20;;
20397;SDS011;10358;49.590;11.030;2023-04-06T02:31:20;9.13;;;4.27;;
20397;SDS011;10358;49.590;11.030;2023-04-06T02:33:45;6.73;;;3.90;;
20397;SDS011;10358;49.590;11.030;2023-04-06T02:36:11;6.37;;;3.97;;
20397;SDS011;10358;49.590;11.030;2023-04-06T02:38:36;7.73;;;3.87;;
20397;SDS011;10358;49.590;11.030;2023-04-06T02:41:02;6.40;;;4.10;;
20397;SDS011;10358;49.590;11.030;2023-04-06T02:43:27;7.67;;;4.03;;
20397;SDS011;10358;49.590;11.030;2023-04-06T02:45:53;8.60;;;3.80;;
20397;SDS011;10358;49.590;11.030;2023-04-06T02:48:18;12.40;;;4.00;;
20397;SDS011;10358;49.590;11.030;2023-04-06T02:50:44;9.77;;;4.27;;
20397;SDS011;10358;49.590;11.030;2023-04-06T02:53:10;9.47;;;4.50;;
20397;SDS011;10358;49.590;11.030;2023-04-06T02:55:35;12.30;;;4.80;;
20397;SDS011;10358;49.590;11.030;2023-04-06T02:58:01;8.80;;;4.67;;
20397;SDS011;10358;49.590;11.030;2023-04-06T03:00:26;8.87;;;5.20;;
20397;SDS011;10358;49.590;11.030;2023-04-06T03:02:52;11.70;;;4.80;;
20397;SDS011;10358;49.590;11.030;2023-04-06T03:05:17;8.57;;;4.17;;
20397;SDS011;10358;49.590;11.030;2023-04-06T03:07:43;8.20;;;4.40;;
20397;SDS011;10358;49.590;11.030;2023-04-06T03:10:08;8.47;;;4.40;;
20397;SDS011;10358;49.590;11.030;2023-04-06T03:12:34;7.13;;;4.17;;
20397;SDS011;10358;49.590;11.030;2023-04-06T03:15:00;7.10;;;4.10;;
20397;SDS011;10358;49.590;11.030;2023-04-06T03:17:25;9.33;;;4.40;;
20397;SDS011;10358;49.590;11.030;2023-04-06T03:19:51;10.20;;;4.77;;
20397;SDS011;10358;49.590;11.030;2023-04-06T03:22:17;6.80;;;4.40;;
20397;SDS011;10358;49.590;11.030;2023-04-06T03:24:42;7.43;;;4.63;;
20397;SDS011;10358;49.590;11.030;2023-04-06T03:27:09;7.43;;;3.90;;
20397;SDS011;10358;49.590;11.030;2023-04-06T03:29:34;8.73;;;4.30;;
20397;SDS011;10358;49.590;11.030;2023-04-06T03:32:00;8.67;;;4.40;;
20397;SDS011;10358;49.590;11.030;2023-04-06T03:34:26;7.60;;;4.40;;
20397;SDS011;10358;49.590;11.030;2023-04-06T03:36:51;7.07;;;4.27;;
20397;SDS011;10358;49.590;11.030;2023-04-06T03:39:17;8.50;;;4.10;;
20397;SDS011;10358;49.590;11.030;2023-04-06T03:41:43;7.73;;;4.70;;
20397;SDS011;10358;49.590;11.030;2023-04-06T03:44:09;8.23;;;4.30;;
20397;SDS011;10358;49.590;11.030;2023-04-06T03:46:35;11.40;;;5.30;;
20397;SDS011;10358;49.590;11.030;2023-04-06T03:49:00;15.10;;;5.87;;
20397;SDS011;10358;49.590;11.030;2023-04-06T03:51:26;12.97;;;4.77;;
20397;SDS011;10358;49.590;11.030;2023-04-06T03:53:52;12.60;;;5.27;;
20397;SDS011;10358;49.590;11.030;2023-04-06T03:56:18;16.20;;;4.83;;
20397;SDS011;10358;49.590;11.030;2023-04-06T03:58:43;11.93;;;4.30;;
20397;SDS011;10358;49.590;11.030;2023-04-06T04:01:15;14.80;;;5.00;;
20397;SDS011;10358;49.590;11.030;2023-04-06T04:03:42;10.00;;;4.40;;
20397;SDS011;10358;49.590;11.030;2023-04-06T04:06:07;13.67;;;5.17;;
20397;SDS011;10358;49.590;11.030;2023-04-06T04:08:33;12.57;;;4.97;;
20397;SDS011;10358;49.590;11.030;2023-04-06T04:10:58;12.10;;;4.77;;
20397;SDS011;10358;49.590;11.030;2023-04-06T04:13:24;14.13;;;4.40;;
20397;SDS011;10358;49.590;11.030;2023-04-06T04:15:50;11.43;;;4.47;;
20397;SDS011;10358;49.590;11.030;2023-04-06T04:18:15;15.37;;;4.20;;
20397;SDS011;10358;49.590;11.030;2023-04-06T04:20:41;9.37;;;4.83;;
20397;SDS011;10358;49.590;11.030;2023-04-06T04:23:06;10.77;;;4.63;;
20397;SDS011;10358;49.590;11.030;2023-04-06T04:25:32;9.77;;;4.40;;
20397;SDS011;10358;49.590;11.030;2023-04-06T04:27:57;9.60;;;4.70;;
20397;SDS011;10358;49.590;11.030;2023-04-06T04:30:23;7.43;;;4.00;;
20397;SDS011;10358;49.590;11.030;2023-04-06T04:32:48;9.80;;;4.30;;
20397;SDS011;10358;49.590;11.030;2023-04-06T04:35:14;8.93;;;4.50;;
20397;SDS011;10358;49.590;11.030;2023-04-06T04:37:40;13.53;;;4.33;;
20397;SDS011;10358;49.590;11.030;2023-04-06T04:40:06;8.93;;;4.30;;
20397;SDS011;10358;49.590;11.030;2023-04-06T04:42:32;8.77;;;4.67;;
20397;SDS011;10358;49.590;11.030;2023-04-06T04:44:59;10.70;;;4.37;;
20397;SDS011;10358;49.590;11.030;2023-04-06T04:47:25;9.87;;;4.40;;
20397;SDS011;10358;49.590;11.030;2023-04-06T04:49:50;10.00;;;4.47;;
20397;SDS011;10358;49.590;11.030;2023-04-06T04:52:15;8.37;;;4.33;;
20397;SDS011;10358;49.590;11.030;2023-04-06T04:54:41;8.27;;;4.40;;
20397;SDS011;10358;49.590;11.030;2023-04-06T04:57:07;8.23;;;4.30;;
20397;SDS011;10358;49.590;11.030;2023-04-06T04:59:33;7.80;;;4.10;;
20397;SDS011;10358;49.590;11.030;2023-04-06T05:01:59;6.63;;;4.07;;
20397;SDS011;10358;49.590;11.030;2023-04-06T05:04:25;11.73;;;4.80;;
20397;SDS011;10358;49.590;11.030;2023-04-06T05:06:51;10.40;;;5.43;;
20397;SDS011;10358;49.590;11.030;2023-04-06T05:09:35;13.23;;;4.63;;
20397;SDS011;10358;49.590;11.030;2023-04-06T05:12:01;8.73;;;4.30;;
20397;SDS011;10358;49.590;11.030;2023-04-06T05:14:27;8.80;;;4.40;;
20397;SDS011;10358;49.590;11.030;2023-04-06T05:16:53;10.57;;;4.90;;
20397;SDS011;10358;49.590;11.030;2023-04-06T05:19:19;7.23;;;4.17;;
20397;SDS011;10358;49.590;11.030;2023-04-06T05:21:45;8.67;;;4.17;;
20397;SDS011;10358;49.590;11.030;2023-04-06T05:24:10;8.63;;;4.63;;
20397;SDS011;10358;49.590;11.030;2023-04-06T05:26:36;9.80;;;4.23;;
20397;SDS011;10358;49.590;11.030;2023-04-06T05:29:01;10.60;;;4.53;;
20397;SDS011;10358;49.590;11.030;2023-04-06T05:31:27;9.07;;;4.47;;
20397;SDS011;10358;49.590;11.030;2023-04-06T05:33:53;7.97;;;4.90;;
20397;SDS011;10358;49.590;11.030;2023-04-06T05:36:19;9.73;;;4.70;;
20397;SDS011;10358;49.590;11.030;2023-04-06T05:38:45;9.43;;;4.60;;
20397;SDS011;10358;49.590;11.030;2023-04-06T05:41:10;11.00;;;4.87;;
20397;SDS011;10358;49.590;11.030;2023-04-06T05:43:36;8.73;;;4.33;;
20397;SDS011;10358;49.590;11.030;2023-04-06T05:46:02;9.67;;;4.60;;
20397;SDS011;10358;49.590;11.030;2023-04-06T05:48:27;9.53;;;4.47;;
20397;SDS011;10358;49.590;11.030;2023-04-06T05:50:53;8.73;;;4.63;;
20397;SDS011;10358;49.590;11.030;2023-04-06T05:53:19;8.33;;;4.47;;
20397;SDS011;10358;49.590;11.030;2023-04-06T05:55:46;9.17;;;5.27;;
20397;SDS011;10358;49.590;11.030;2023-04-06T05:58:11;9.43;;;5.03;;
20397;SDS011;10358;49.590;11.030;2023-04-06T06:00:37;8.57;;;4.87;;
20397;SDS011;10358;49.590;11.030;2023-04-06T06:03:02;11.93;;;4.77;;
20397;SDS011;10358;49.590;11.030;2023-04-06T06:05:31;10.77;;;4.67;;
20397;SDS011;10358;49.590;11.030;2023-04-06T06:07:56;11.80;;;5.00;;
20397;SDS011;10358;49.590;11.030;2023-04-06T06:10:22;8.50;;;5.00;;
20397;SDS011;10358;49.590;11.030;2023-04-06T06:12:47;9.03;;;4.87;;
20397;SDS011;10358;49.590;11.030;2023-04-06T06:15:13;12.57;;;4.90;;
20397;SDS011;10358;49.590;11.030;2023-04-06T06:17:39;10.30;;;5.10;;
20397;SDS011;10358;49.590;11.030;2023-04-06T06:20:05;10.50;;;4.93;;
20397;SDS011;10358;49.590;11.030;2023-04-06T06:22:37;10.17;;;4.80;;
20397;SDS011;10358;49.590;11.030;2023-04-06T06:25:03;9.80;;;4.40;;
20397;SDS011;10358;49.590;11.030;2023-04-06T06:27:28;7.83;;;4.40;;
20397;SDS011;10358;49.590;11.030;2023-04-06T06:29:54;8.50;;;4.90;;
20397;SDS011;10358;49.590;11.030;2023-04-06T06:32:20;8.70;;;4.70;;
20397;SDS011;10358;49.590;11.030;2023-04-06T06:34:45;10.30;;;4.80;;
20397;SDS011;10358;49.590;11.030;2023-04-06T06:37:11;10.97;;;5.07;;
20397;SDS011;10358;49.590;11.030;2023-04-06T06:39:37;7.53;;;4.57;;
20397;SDS011;10358;49.590;11.030;2023-04-06T06:42:03;8.27;;;4.37;;
20397;SDS011;10358;49.590;11.030;2023-04-06T06:44:29;10.40;;;4.63;;
20397;SDS011;10358;49.590;11.030;2023-04-06T06:46:54;10.73;;;5.03;;
20397;SDS011;10358;49.590;11.030;2023-04-06T06:49:20;10.23;;;4.60;;
20397;SDS011;10358;49.590;11.030;2023-04-06T06:51:45;9.50;;;4.40;;
20397;SDS011;10358;49.590;11.030;2023-04-06T06:54:11;6.53;;;4.20;;
20397;SDS011;10358;49.590;11.030;2023-04-06T06:56:37;8.37;;;4.40;;
20397;SDS011;10358;49.590;11.030;2023-04-06T06:59:03;9.90;;;5.37;;
20397;SDS011;10358;49.590;11.030;2023-04-06T07:01:30;8.87;;;4.87;;
20397;SDS011;10358;49.590;11.030;2023-04-06T07:03:57;9.60;;;4.60;;
20397;SDS011;10358;49.590;11.030;2023-04-06T07:06:22;8.87;;;4.90;;
20397;SDS011;10358;49.590;11.030;2023-04-06T07:08:48;11.33;;;4.80;;
20397;SDS011;10358;49.590;11.030;2023-04-06T07:11:13;8.90;;;4.63;;
20397;SDS011;10358;49.590;11.030;2023-04-06T07:13:39;9.80;;;4.13;;
20397;SDS011;10358;49.590;11.030;2023-04-06T07:16:05;13.33;;;4.70;;
20397;SDS011;10358;49.590;11.030;2023-04-06T07:18:30;7.80;;;4.53;;
20397;SDS011;10358;49.590;11.030;2023-04-06T07:20:56;8.33;;;4.23;;
20397;SDS011;10358;49.590;11.030;2023-04-06T07:23:21;9.30;;;4.40;;
20397;SDS011;10358;49.590;11.030;2023-04-06T07:25:47;7.33;;;3.97;;
20397;SDS011;10358;49.590;11.030;2023-04-06T07:28:15;7.47;;;4.07;;
20397;SDS011;10358;49.590;11.030;2023-04-06T07:30:41;6.70;;;3.87;;
20397;SDS011;10358;49.590;11.030;2023-04-06T07:33:07;7.90;;;3.87;;
20397;SDS011;10358;49.590;11.030;2023-04-06T07:35:32;8.87;;;4.07;;
20397;SDS011;10358;49.590;11.030;2023-04-06T07:37:59;6.47;;;3.70;;
20397;SDS011;10358;49.590;11.030;2023-04-06T07:40:24;8.20;;;3.80;;
20397;SDS011;10358;49.590;11.030;2023-04-06T07:42:51;12.50;;;4.63;;
20397;SDS011;10358;49.590;11.030;2023-04-06T07:45:17;5.10;;;3.57;;
20397;SDS011;10358;49.590;11.030;2023-04-06T07:47:43;6.47;;;4.17;;
20397;SDS011;10358;49.590;11.030;2023-04-06T07:50:09;9.83;;;4.20;;
20397;SDS011;10358;49.590;11.030;2023-04-06T07:52:35;9.67;;;4.70;;
20397;SDS011;10358;49.590;11.030;2023-04-06T07:55:00;9.17;;;4.40;;
20397;SDS011;10358;49.590;11.030;2023-04-06T07:57:26;14.00;;;4.83;;
20397;SDS011;10358;49.590;11.030;2023-04-06T07:59:51;9.93;;;5.07;;
20397;SDS011;10358;49.590;11.030;2023-04-06T08:02:17;9.17;;;4.80;;
20397;SDS011;10358;49.590;11.030;2023-04-06T08:04:43;10.40;;;5.17;;
20397;SDS011;10358;49.590;11.030;2023-04-06T08:07:09;10.00;;;5.20;;
20397;SDS011;10358;49.590;11.030;2023-04-06T08:09:35;9.13;;;5.73;;
20397;SDS011;10358;49.590;11.030;2023-04-06T08:12:00;8.27;;;5.07;;
20397;SDS011;10358;49.590;11.030;2023-04-06T08:14:26;9.60;;;5.00;;
20397;SDS011;10358;49.590;11.030;2023-04-06T08:16:51;11.77;;;5.50;;
20397;SDS011;10358;49.590;11.030;2023-04-06T08:19:17;11.00;;;5.47;;
20397;SDS011;10358;49.590;11.030;2023-04-06T08:21:43;12.10;;;6.80;;
20397;SDS011;10358;49.590;11.030;2023-04-06T08:24:11;12.73;;;6.73;;
20397;SDS011;10358;49.590;11.030;2023-04-06T08:26:37;17.23;;;6.97;;
20397;SDS011;10358;49.590;11.030;2023-04-06T08:29:02;15.17;;;6.83;;
20397;SDS011;10358;49.590;11.030;2023-04-06T08:31:29;14.73;;;6.80;;
20397;SDS011;10358;49.590;11.030;2023-04-06T08:33:55;11.77;;;6.37;;
20397;SDS011;10358;49.590;11.030;2023-04-06T08:36:20;11.73;;;7.13;;
20397;SDS011;10358;49.590;11.030;2023-04-06T08:38:48;17.70;;;7.27;;
20397;SDS011;10358;49.590;11.030;2023-04-06T08:41:14;14.37;;;8.27;;
20397;SDS011;10358;49.590;11.030;2023-04-06T08:43:49;15.77;;;7.70;;
20397;SDS011;10358;49.590;11.030;2023-04-06T08:46:17;14.77;;;7.53;;
20397;SDS011;10358;49.590;11.030;2023-04-06T08:48:43;14.30;;;7.97;;
20397;SDS011;10358;49.590;11.030;2023-04-06T08:51:10;14.67;;;7.47;;
20397;SDS011;10358;49.590;11.030;2023-04-06T08:53:36;14.43;;;7.63;;
20397;SDS011;10358;49.590;11.030;2023-04-06T08:56:04;14.10;;;7.47;;
20397;SDS011;10358;49.590;11.030;2023-04-06T08:58:32;16.47;;;7.40;;
20397;SDS011;10358;49.590;11.030;2023-04-06T09:01:05;12.50;;;7.40;;
20397;SDS011;10358;49.590;11.030;2023-04-06T09:03:34;16.83;;;7.30;;
20397;SDS011;10358;49.590;11.030;2023-04-06T09:06:04;10.87;;;7.10;;
20397;SDS011;10358;49.590;11.030;2023-04-06T09:08:32;15.80;;;7.07;;
20397;SDS011;10358;49.590;11.030;2023-04-06T09:11:01;13.03;;;7.17;;
20397;SDS011;10358;49.590;11.030;2023-04-06T09:13:27;11.53;;;6.83;;
20397;SDS011;10358;49.590;11.030;2023-04-06T09:16:03;13.73;;;6.23;;
20397;SDS011;10358;49.590;11.030;2023-04-06T09:18:31;12.00;;;6.70;;
20397;SDS011;10358;49.590;11.030;2023-04-06T09:21:02;14.43;;;6.20;;
20397;SDS011;10358;49.590;11.030;2023-04-06T09:23:30;9.57;;;6.00;;
20397;SDS011;10358;49.590;11.030;2023-04-06T09:26:05;12.80;;;6.33;;
20397;SDS011;10358;49.590;11.030;2023-04-06T09:28:50;11.63;;;6.80;;
20397;SDS011;10358;49.590;11.030;2023-04-06T09:31:21;14.40;;;6.93;;
20397;SDS011;10358;49.590;11.030;2023-04-06T09:33:51;11.90;;;6.47;;
20397;SDS011;10358;49.590;11.030;2023-04-06T09:36:18;26.63;;;7.00;;
20397;SDS011;10358;49.590;11.030;2023-04-06T09:39:03;11.53;;;6.33;;
20397;SDS011;10358;49.590;11.030;2023-04-06T09:41:35;11.93;;;6.50;;
20397;SDS011;10358;49.590;11.030;2023-04-06T09:44:08;12.07;;;7.10;;
20397;SDS011;10358;49.590;11.030;2023-04-06T09:46:35;13.43;;;7.27;;
20397;SDS011;10358;49.590;11.030;2023-04-06T09:49:04;13.83;;;7.00;;
20397;SDS011;10358;49.590;11.030;2023-04-06T09:51:31;12.27;;;6.40;;
20397;SDS011;10358;49.590;11.030;2023-04-06T09:54:05;10.27;;;6.57;;
20397;SDS011;10358;49.590;11.030;2023-04-06T09:59:31;10.23;;;6.50;;
20397;SDS011;10358;49.590;11.030;2023-04-06T10:05:20;12.77;;;6.70;;
20397;SDS011;10358;49.590;11.030;2023-04-06T10:07:54;12.70;;;6.63;;
20397;SDS011;10358;49.590;11.030;2023-04-06T10:10:24;10.93;;;6.87;;
20397;SDS011;10358;49.590;11.030;2023-04-06T10:12:50;13.33;;;7.07;;
20397;SDS011;10358;49.590;11.030;2023-04-06T10:15:16;13.67;;;7.30;;
20397;SDS011;10358;49.590;11.030;2023-04-06T10:17:42;13.80;;;7.33;;
20397;SDS011;10358;49.590;11.030;2023-04-06T10:20:10;11.77;;;6.63;;
20397;SDS011;10358;49.590;11.030;2023-04-06T10:22:54;12.73;;;7.27;;
20397;SDS011;10358;49.590;11.030;2023-04-06T10:25:52;11.83;;;6.90;;
20397;SDS011;10358;49.590;11.030;2023-04-06T10:28:21;12.77;;;7.40;;
20397;SDS011;10358;49.590;11.030;2023-04-06T10:30:47;11.27;;;7.23;;
20397;SDS011;10358;49.590;11.030;2023-04-06T10:33:17;11.80;;;7.07;;
20397;SDS011;10358;49.590;11.030;2023-04-06T10:35:44;13.43;;;7.17;;
20397;SDS011;10358;49.590;11.030;2023-04-06T10:38:09;14.23;;;7.47;;
20397;SDS011;10358;49.590;11.030;2023-04-06T10:40:37;14.47;;;7.07;;
20397;SDS011;10358;49.590;11.030;2023-04-06T10:43:07;12.60;;;7.43;;
20397;SDS011;10358;49.590;11.030;2023-04-06T10:45:38;11.77;;;7.40;;
20397;SDS011;10358;49.590;11.030;2023-04-06T10:48:14;12.53;;;7.20;;
20397;SDS011;10358;49.590;11.030;2023-04-06T10:50:43;11.70;;;6.97;;
20397;SDS011;10358;49.590;11.030;2023-04-06T10:53:10;12.67;;;6.87;;
20397;SDS011;10358;49.590;11.030;2023-04-06T10:55:35;10.13;;;6.77;;
20397;SDS011;10358;49.590;11.030;2023-04-06T10:58:08;10.30;;;6.80;;
20397;SDS011;10358;49.590;11.030;2023-04-06T11:00:34;14.23;;;6.83;;
20397;SDS011;10358;49.590;11.030;2023-04-06T11:03:00;12.40;;;6.70;;
20397;SDS011;10358;49.590;11.030;2023-04-06T11:05:26;9.90;;;6.80;;
20397;SDS011;10358;49.590;11.030;2023-04-06T11:07:52;12.13;;;7.43;;
20397;SDS011;10358;49.590;11.030;2023-04-06T11:10:21;14.57;;;7.00;;
20397;SDS011;10358;49.590;11.030;2023-04-06T11:12:52;11.43;;;7.83;;
20397;SDS011;10358;49.590;11.030;2023-04-06T11:15:19;11.77;;;7.73;;
20397;SDS011;10358;49.590;11.030;2023-04-06T11:17:45;10.10;;;6.90;;
20397;SDS011;10358;49.590;11.030;2023-04-06T11:20:11;14.67;;;7.53;;
20397;SDS011;10358;49.590;11.030;2023-04-06T11:22:47;11.90;;;7.60;;
20397;SDS011;10358;49.590;11.030;2023-04-06T11:25:14;14.33;;;7.90;;
20397;SDS011;10358;49.590;11.030;2023-04-06T11:27:41;11.87;;;7.83;;
20397;SDS011;10358;49.590;11.030;2023-04-06T11:30:08;12.67;;;7.23;;
20397;SDS011;10358;49.590;11.030;2023-04-06T11:32:40;12.87;;;7.70;;
20397;SDS011;10358;49.590;11.030;2023-04-06T11:35:10;11.50;;;7.47;;
20397;SDS011;10358;49.590;11.030;2023-04-06T11:37:45;10.93;;;7.40;;
20397;SDS011;10358;49.590;11.030;2023-04-06T11:40:11;11.47;;;7.13;;
20397;SDS011;10358;49.590;11.030;2023-04-06T11:42:37;13.60;;;7.37;;
20397;SDS011;10358;49.590;11.030;2023-04-06T11:45:02;12.57;;;7.30;;
20397;SDS011;10358;49.590;11.030;2023-04-06T11:47:29;11.03;;;6.93;;
20397;SDS011;10358;49.590;11.030;2023-04-06T11:50:04;13.03;;;7.27;;
20397;SDS011;10358;49.590;11.030;2023-04-06T11:52:38;14.20;;;6.90;;
20397;SDS011;10358;49.590;11.030;2023-04-06T11:55:11;11.73;;;6.67;;
20397;SDS011;10358;49.590;11.030;2023-04-06T11:57:38;12.53;;;6.73;;
20397;SDS011;10358;49.590;11.030;2023-04-06T12:00:04;10.73;;;6.40;;
20397;SDS011;10358;49.590;11.030;2023-04-06T12:02:30;10.57;;;7.00;;
20397;SDS011;10358;49.590;11.030;2023-04-06T12:04:57;12.20;;;7.33;;
20397;SDS011;10358;49.590;11.030;2023-04-06T12:07:22;11.20;;;6.47;;
20397;SDS011;10358;49.590;11.030;2023-04-06T12:09:48;12.43;;;7.27;;
20397;SDS011;10358;49.590;11.030;2023-04-06T12:12:13;11.80;;;7.40;;
20397;SDS011;10358;49.590;11.030;2023-04-06T12:14:39;11.73;;;6.90;;
20397;SDS011;10358;49.590;11.030;2023-04-06T12:17:05;11.87;;;7.10;;
20397;SDS011;10358;49.590;11.030;2023-04-06T12:19:30;11.77;;;7.17;;
20397;SDS011;10358;49.590;11.030;2023-04-06T12:21:56;12.80;;;7.30;;
20397;SDS011;10358;49.590;11.030;2023-04-06T12:24:22;9.67;;;6.83;;
20397;SDS011;10358;49.590;11.030;2023-04-06T12:26:48;10.20;;;6.40;;
20397;SDS011;10358;49.590;11.030;2023-04-06T12:29:14;12.83;;;7.40;;
20397;SDS011;10358;49.590;11.030;2023-04-06T12:31:39;13.27;;;7.07;;
20397;SDS011;10358;49.590;11.030;2023-04-06T12:34:07;11.43;;;7.00;;
20397;SDS011;10358;49.590;11.030;2023-04-06T12:36:33;15.50;;;8.17;;
20397;SDS011;10358;49.590;11.030;2023-04-06T12:38:59;13.17;;;7.43;;
20397;SDS011;10358;49.590;11.030;2023-04-06T12:41:28;11.17;;;7.13;;
20397;SDS011;10358;49.590;11.030;2023-04-06T12:43:54;13.80;;;7.07;;
20397;SDS011;10358;49.590;11.030;2023-04-06T12:46:20;11.60;;;7.40;;
20397;SDS011;10358;49.590;11.030;2023-04-06T12:48:46;11.23;;;7.17;;
20397;SDS011;10358;49.590;11.030;2023-04-06T12:51:12;9.07;;;6.30;;
20397;SDS011;10358;49.590;11.030;2023-04-06T12:53:38;11.63;;;6.53;;
20397;SDS011;10358;49.590;11.030;2023-04-06T12:56:10;10.90;;;6.00;;
20397;SDS011;10358;49.590;11.030;2023-04-06T12:58:43;10.27;;;6.80;;
20397;SDS011;10358;49.590;11.030;2023-04-06T13:01:09;10.80;;;6.43;;
20397;SDS011;10358;49.590;11.030;2023-04-06T13:03:37;10.43;;;6.43;;
20397;SDS011;10358;49.590;11.030;2023-04-06T13:06:03;11.57;;;6.70;;
20397;SDS011;10358;49.590;11.030;2023-04-06T13:08:29;10.43;;;6.70;;
20397;SDS011;10358;49.590;11.030;2023-04-06T13:10:54;10.23;;;6.10;;
20397;SDS011;10358;49.590;11.030;2023-04-06T13:13:24;12.53;;;6.30;;
20397;SDS011;10358;49.590;11.030;2023-04-06T13:15:51;10.30;;;6.40;;
20397;SDS011;10358;49.590;11.030;2023-04-06T13:18:18;10.37;;;6.40;;
20397;SDS011;10358;49.590;11.030;2023-04-06T13:20:43;12.27;;;6.60;;
20397;SDS011;10358;49.590;11.030;2023-04-06T13:23:09;10.30;;;6.70;;
20397;SDS011;10358;49.590;11.030;2023-04-06T13:25:35;8.13;;;5.77;;
20397;SDS011;10358;49.590;11.030;2023-04-06T13:28:01;10.27;;;5.97;;
20397;SDS011;10358;49.590;11.030;2023-04-06T13:30:26;10.13;;;6.60;;
20397;SDS011;10358;49.590;11.030;2023-04-06T13:32:52;8.53;;;6.03;;
20397;SDS011;10358;49.590;11.030;2023-04-06T13:35:17;8.70;;;6.57;;
20397;SDS011;10358;49.590;11.030;2023-04-06T13:37:43;9.10;;;6.50;;
20397;SDS011;10358;49.590;11.030;2023-04-06T13:40:09;10.40;;;5.87;;
20397;SDS011;10358;49.590;11.030;2023-04-06T13:42:35;9.67;;;5.80;;
20397;SDS011;10358;49.590;11.030;2023-04-06T13:45:01;12.87;;;6.77;;
20397;SDS011;10358;49.590;11.030;2023-04-06T13:47:27;8.57;;;5.60;;
20397;SDS011;10358;49.590;11.030;2023-04-06T13:49:52;9.93;;;6.33;;
20397;SDS011;10358;49.590;11.030;2023-04-06T13:52:19;9.73;;;6.90;;
20397;SDS011;10358;49.590;11.030;2023-04-06T13:54:45;9.10;;;6.30;;
20397;SDS011;10358;49.590;11.030;2023-04-06T13:57:11;8.13;;;5.90;;
20397;SDS011;10358;49.590;11.030;2023-04-06T13:59:37;10.57;;;5.70;;
20397;SDS011;10358;49.590;11.030;2023-04-06T14:02:04;10.13;;;6.80;;
20397;SDS011;10358;49.590;11.030;2023-04-06T14:04:30;9.50;;;6.20;;
20397;SDS011;10358;49.590;11.030;2023-04-06T14:06:57;8.70;;;5.80;;
20397;SDS011;10358;49.590;11.030;2023-04-06T14:09:23;11.32;;;7.03;;
20397;SDS011;10358;49.590;11.030;2023-04-06T14:11:49;11.00;;;6.57;;
20397;SDS011;10358;49.590;11.030;2023-04-06T14:14:15;8.95;;;6.00;;
20397;SDS011;10358;49.590;11.030;2023-04-06T14:16:42;10.32;;;6.72;;
20397;SDS011;10358;49.590;11.030;2023-04-06T14:19:11;10.43;;;6.18;;
20397;SDS011;10358;49.590;11.030;2023-04-06T14:21:39;12.48;;;6.03;;
20397;SDS011;10358;49.590;11.030;2023-04-06T14:24:06;8.25;;;5.40;;
20397;SDS011;10358;49.590;11.030;2023-04-06T14:26:33;7.43;;;5.35;;
20397;SDS011;10358;49.590;11.030;2023-04-06T14:28:59;10.15;;;5.80;;
20397;SDS011;10358;49.590;11.030;2023-04-06T14:31:25;8.48;;;5.15;;